Time;durP1;ratioP1;P1;durP2;ratioP2;P2;SDS_P1;SDS_P2;PMS_P1;PMS_P2;Temp;Humidity;BMP_temperature;BMP_pressure;BME280_temperature;BME280_humidity;BME280_pressure;Samples;Min_cycle;Max_cycle;Signal;HPM_P1;HPM_P2
2024/01/24 00:00:01;;;;;;;6.55;1.75;;;13.70;99.90;;;;;;5054225;28;20033;-63
2024/01/24 00:02:27;;;;;;;3.28;1.52;;;13.70;99.90;;;;;;5054122;28;20052;-66
2024/01/24 00:04:52;;;;;;;2.63;1.73;;;13.70;99.90;;;;;;5053917;28;20037;-66
2024/01/24 00:07:18;;;;;;;3.20;1.40;;;13.70;99.90;;;;;;5053926;28;20024;-65
2024/01/24 00:09:43;;;;;;;5.35;1.80;;;13.80;99.90;;;;;;5054093;28;20531;-64
2024/01/24 00:12:09;;;;;;;4.30;1.58;;;13.80;99.90;;;;;;5054033;28;20013;-65
2024/01/24 00:14:35;;;;;;;3.03;1.30;;;13.90;99.90;;;;;;5053947;28;20400;-66
2024/01/24 00:17:00;;;;;;;4.93;1.50;;;13.90;99.90;;;;;;5053090;28;20030;-65
2024/01/24 00:19:26;;;;;;;4.60;1.55;;;13.90;99.90;;;;;;5053908;28;20029;-64
2024/01/24 00:21:51;;;;;;;5.07;1.60;;;13.90;99.90;;;;;;5053825;28;20041;-64
2024/01/24 00:24:17;;;;;;;6.22;1.65;;;13.90;99.90;;;;;;5053821;28;20025;-66
2024/01/24 00:26:43;;;;;;;4.18;1.63;;;13.90;99.90;;;;;;5053751;28;20092;-64
2024/01/24 00:29:08;;;;;;;2.40;1.63;;;14.00;99.90;;;;;;5053746;28;20064;-64
2024/01/24 00:31:34;;;;;;;4.15;1.52;;;14.00;99.90;;;;;;5053548;28;20040;-65
2024/01/24 00:33:59;;;;;;;2.72;1.20;;;14.00;99.90;;;;;;5053554;28;20045;-65
2024/01/24 00:36:25;;;;;;;1.42;1.00;;;14.00;99.90;;;;;;5053493;28;20372;-65
2024/01/24 00:38:51;;;;;;;4.18;1.23;;;14.00;99.90;;;;;;5053387;28;20030;-64
2024/01/24 00:41:17;;;;;;;2.47;1.23;;;14.10;99.90;;;;;;5053334;28;20453;-65
2024/01/24 00:43:42;;;;;;;3.75;1.35;;;14.10;99.90;;;;;;5053564;28;20029;-65
2024/01/24 00:46:08;;;;;;;2.58;1.30;;;14.10;99.90;;;;;;5053265;28;20491;-65
2024/01/24 00:48:33;;;;;;;1.92;1.10;;;14.10;99.90;;;;;;5053265;28;20034;-65
2024/01/24 00:50:59;;;;;;;1.58;1.05;;;14.20;99.90;;;;;;5053196;28;20033;-66
2024/01/24 00:53:26;;;;;;;2.33;1.02;;;14.10;99.90;;;;;;5053317;28;20049;-65
2024/01/24 00:55:52;;;;;;;2.40;1.10;;;14.10;99.90;;;;;;5053129;28;20025;-64
2024/01/24 00:58:19;;;;;;;4.50;1.10;;;14.10;99.90;;;;;;5053128;28;20032;-65
2024/01/24 01:00:44;;;;;;;1.70;0.93;;;14.10;99.90;;;;;;5052910;28;20025;-66
2024/01/24 01:03:10;;;;;;;1.45;1.10;;;14.10;99.90;;;;;;5052816;28;20017;-64
2024/01/24 01:05:37;;;;;;;3.50;0.95;;;14.10;99.90;;;;;;5052982;28;20064;-64
2024/01/24 01:08:05;;;;;;;2.67;1.02;;;14.10;99.90;;;;;;5052815;28;20045;-64
2024/01/24 01:10:30;;;;;;;2.33;1.17;;;14.10;99.90;;;;;;5052872;28;20075;-64
2024/01/24 01:12:56;;;;;;;1.83;1.10;;;14.00;99.90;;;;;;5052929;28;20021;-64
2024/01/24 01:15:24;;;;;;;3.15;1.25;;;14.00;99.90;;;;;;5052641;28;20470;-65
2024/01/24 01:17:50;;;;;;;3.22;1.10;;;13.90;99.90;;;;;;5052795;28;20014;-65
2024/01/24 01:20:19;;;;;;;1.77;1.30;;;13.90;99.90;;;;;;5052583;28;20099;-64
2024/01/24 01:22:45;;;;;;;2.65;1.27;;;13.80;99.90;;;;;;5052764;28;20048;-64
2024/01/24 01:25:10;;;;;;;2.00;1.45;;;13.80;99.90;;;;;;5052634;28;20025;-64
2024/01/24 01:27:36;;;;;;;2.38;1.17;;;13.70;99.90;;;;;;5052620;28;20059;-66
2024/01/24 01:30:02;;;;;;;2.35;1.15;;;13.80;99.90;;;;;;5052496;28;20034;-64
2024/01/24 01:32:27;;;;;;;2.28;1.20;;;13.70;99.90;;;;;;5052556;28;20041;-65
2024/01/24 01:34:54;;;;;;;2.63;1.10;;;13.70;99.90;;;;;;5052220;28;20033;-64
2024/01/24 01:37:23;;;;;;;1.70;1.00;;;13.70;99.90;;;;;;5052413;28;20025;-66
2024/01/24 01:39:49;;;;;;;1.92;1.17;;;13.70;99.90;;;;;;5052308;28;20021;-64
2024/01/24 01:42:15;;;;;;;2.38;1.08;;;13.70;99.90;;;;;;5052421;28;20032;-67
2024/01/24 01:44:46;;;;;;;2.97;1.10;;;13.70;99.90;;;;;;5052277;28;20044;-66
2024/01/24 01:47:13;;;;;;;2.30;1.05;;;13.70;99.90;;;;;;5052324;28;20029;-65
2024/01/24 01:49:40;;;;;;;1.88;1.10;;;13.70;99.90;;;;;;5052223;28;20117;-65
2024/01/24 01:52:07;;;;;;;2.75;1.10;;;13.70;99.90;;;;;;5052253;28;20037;-64
2024/01/24 01:54:33;;;;;;;2.05;0.90;;;13.70;99.90;;;;;;5052169;28;20033;-64
2024/01/24 01:56:59;;;;;;;2.85;1.50;;;13.70;99.90;;;;;;5052053;28;20040;-63
2024/01/24 01:59:26;;;;;;;3.35;1.00;;;13.70;99.90;;;;;;5052125;28;20036;-64
2024/01/24 02:01:54;;;;;;;1.67;1.00;;;13.60;99.90;;;;;;5052097;28;20045;-65
2024/01/24 02:04:20;;;;;;;2.22;1.30;;;13.50;99.90;;;;;;5051996;28;20117;-65
2024/01/24 02:06:46;;;;;;;4.38;1.20;;;13.30;99.90;;;;;;5052245;28;20046;-69
2024/01/24 02:09:12;;;;;;;2.75;1.27;;;13.20;99.90;;;;;;5051977;28;20050;-64
2024/01/24 02:11:39;;;;;;;2.78;1.33;;;13.10;99.90;;;;;;5050913;28;20473;-65
2024/01/24 02:14:06;;;;;;;4.43;1.65;;;13.00;99.90;;;;;;5052101;28;20053;-65
2024/01/24 02:16:31;;;;;;;3.45;1.50;;;12.90;99.90;;;;;;5052057;28;20121;-64
2024/01/24 02:18:57;;;;;;;2.83;1.50;;;12.90;99.90;;;;;;5052120;28;20036;-65
2024/01/24 02:21:23;;;;;;;2.75;1.45;;;12.90;99.90;;;;;;5051967;28;20030;-63
2024/01/24 02:23:48;;;;;;;2.45;1.30;;;12.90;99.90;;;;;;5051986;28;20029;-63
2024/01/24 02:26:15;;;;;;;2.75;1.40;;;12.90;99.90;;;;;;5050850;28;20031;-64
2024/01/24 02:28:40;;;;;;;2.03;1.30;;;12.90;99.90;;;;;;5051970;28;20029;-64
2024/01/24 02:31:06;;;;;;;3.20;1.52;;;12.90;99.90;;;;;;5051933;28;20108;-64
2024/01/24 02:33:31;;;;;;;2.25;1.30;;;12.80;99.90;;;;;;5051642;28;20041;-64
2024/01/24 02:35:57;;;;;;;2.75;1.60;;;12.80;99.90;;;;;;5051705;28;20060;-64
2024/01/24 02:38:23;;;;;;;1.88;1.42;;;12.90;99.90;;;;;;5051852;28;20037;-64
2024/01/24 02:40:49;;;;;;;1.60;1.42;;;12.80;99.90;;;;;;5053316;28;20025;-65
2024/01/24 02:43:14;;;;;;;1.10;1.00;;;12.80;99.90;;;;;;5055724;28;20026;-66
2024/01/24 02:45:40;;;;;;;2.75;1.20;;;12.90;99.90;;;;;;5055656;28;20040;-65
2024/01/24 02:48:06;;;;;;;1.80;1.10;;;12.90;99.90;;;;;;5055592;28;20033;-65
2024/01/24 02:50:31;;;;;;;1.30;0.90;;;12.90;99.90;;;;;;5055499;28;20079;-65
2024/01/24 02:52:57;;;;;;;3.15;1.20;;;12.90;99.90;;;;;;5055514;28;20034;-64
2024/01/24 02:55:23;;;;;;;0.80;0.60;;;13.00;99.90;;;;;;5055411;28;20037;-64
2024/01/24 02:57:48;;;;;;;0.98;0.60;;;12.90;99.90;;;;;;5055464;28;20072;-64
2024/01/24 03:00:15;;;;;;;1.90;0.70;;;12.90;99.90;;;;;;5055393;28;20028;-64
2024/01/24 03:02:41;;;;;;;0.93;0.70;;;12.90;99.90;;;;;;5055152;28;20053;-65
2024/01/24 03:05:08;;;;;;;0.60;0.50;;;13.00;99.90;;;;;;5055281;28;20033;-64
2024/01/24 03:07:35;;;;;;;0.80;0.57;;;13.00;99.90;;;;;;5055104;28;20049;-65
2024/01/24 03:10:01;;;;;;;0.70;0.70;;;13.00;99.90;;;;;;5055055;28;20032;-66
2024/01/24 03:12:26;;;;;;;1.35;0.80;;;13.00;99.90;;;;;;5055171;28;20077;-65
2024/01/24 03:14:52;;;;;;;1.17;0.90;;;13.00;99.90;;;;;;5055001;28;20044;-66
2024/01/24 03:17:18;;;;;;;2.05;0.95;;;13.10;99.90;;;;;;5054046;28;20060;-64
2024/01/24 03:19:44;;;;;;;1.45;0.95;;;13.10;99.90;;;;;;5054894;28;20033;-64
2024/01/24 03:22:10;;;;;;;1.45;1.17;;;13.00;99.90;;;;;;5054986;28;20047;-66
2024/01/24 03:24:35;;;;;;;1.88;1.00;;;13.00;99.90;;;;;;5054873;28;20089;-64
2024/01/24 03:27:01;;;;;;;1.10;0.95;;;13.00;99.90;;;;;;5054995;28;20030;-64
2024/01/24 03:29:26;;;;;;;1.88;1.45;;;12.90;99.90;;;;;;5054948;28;20057;-65
2024/01/24 03:31:52;;;;;;;1.55;1.23;;;12.90;99.90;;;;;;5054789;28;20052;-65
2024/01/24 03:34:17;;;;;;;1.95;1.40;;;12.90;99.90;;;;;;5054609;28;20573;-63
2024/01/24 03:36:43;;;;;;;2.58;1.80;;;12.90;99.90;;;;;;5054659;28;20029;-65
2024/01/24 03:39:12;;;;;;;4.18;2.08;;;12.80;99.90;;;;;;5054438;28;20033;-64
2024/01/24 03:41:40;;;;;;;3.03;1.90;;;12.80;99.90;;;;;;5053426;28;20029;-64
2024/01/24 03:44:06;;;;;;;3.45;2.88;;;12.80;99.90;;;;;;5054632;28;20032;-65
2024/01/24 03:46:32;;;;;;;4.75;2.05;;;12.70;99.90;;;;;;5054426;28;20033;-65
2024/01/24 03:48:57;;;;;;;4.25;2.08;;;12.70;99.90;;;;;;5054396;28;20072;-64
2024/01/24 03:51:24;;;;;;;3.85;1.70;;;12.80;99.90;;;;;;5053850;28;20083;-64
2024/01/24 03:53:49;;;;;;;3.42;1.63;;;12.90;99.90;;;;;;5053686;28;20028;-65
2024/01/24 03:56:15;;;;;;;2.92;1.38;;;12.90;99.90;;;;;;5054303;28;20053;-64
2024/01/24 03:58:41;;;;;;;3.38;1.55;;;12.90;99.90;;;;;;5054383;28;20034;-64
2024/01/24 04:01:06;;;;;;;3.47;1.30;;;13.00;99.90;;;;;;5054228;28;20026;-64
2024/01/24 04:03:32;;;;;;;4.50;1.30;;;13.00;99.90;;;;;;5054048;28;20033;-66
2024/01/24 04:05:58;;;;;;;3.72;1.48;;;13.10;99.90;;;;;;5054216;28;20033;-66
2024/01/24 04:08:23;;;;;;;4.00;1.35;;;13.10;99.90;;;;;;5053810;28;20057;-65
2024/01/24 04:10:49;;;;;;;2.35;0.90;;;13.20;99.90;;;;;;5054102;28;20037;-65
2024/01/24 04:13:14;;;;;;;4.75;1.05;;;13.20;99.90;;;;;;5053968;28;20041;-65
2024/01/24 04:15:41;;;;;;;8.50;1.50;;;13.20;99.90;;;;;;5053804;28;20049;-66
2024/01/24 04:18:06;;;;;;;4.82;0.95;;;13.20;99.90;;;;;;5053969;28;20081;-65
2024/01/24 04:20:32;;;;;;;4.72;1.05;;;13.20;99.90;;;;;;5053790;28;20075;-65
2024/01/24 04:22:58;;;;;;;8.20;1.50;;;13.30;99.90;;;;;;5053754;28;20516;-65
2024/01/24 04:25:24;;;;;;;5.97;1.27;;;13.30;99.90;;;;;;5052762;28;20018;-65
2024/01/24 04:27:49;;;;;;;4.55;1.58;;;13.30;99.90;;;;;;5053743;28;20025;-66
2024/01/24 04:30:15;;;;;;;7.03;1.75;;;13.30;99.90;;;;;;5053670;28;20041;-66
2024/01/24 04:32:41;;;;;;;5.38;1.50;;;13.20;99.90;;;;;;5053448;28;20029;-63
2024/01/24 04:35:07;;;;;;;7.05;1.60;;;13.20;99.90;;;;;;5052575;28;20075;-65
2024/01/24 04:37:32;;;;;;;8.30;1.92;;;13.20;99.90;;;;;;5053497;28;20037;-64
2024/01/24 04:39:58;;;;;;;11.38;2.00;;;13.30;99.90;;;;;;5053523;28;20470;-66
2024/01/24 04:42:24;;;;;;;5.70;1.38;;;13.30;99.90;;;;;;5053499;28;20029;-65
2024/01/24 04:44:50;;;;;;;7.18;1.67;;;13.20;99.90;;;;;;5053427;28;20086;-64
2024/01/24 04:47:16;;;;;;;10.20;1.88;;;13.30;99.90;;;;;;5053427;28;20018;-64
2024/01/24 04:49:42;;;;;;;11.40;1.95;;;13.20;99.90;;;;;;5053215;28;20033;-65
2024/01/24 04:52:08;;;;;;;7.82;1.50;;;13.20;99.90;;;;;;5053181;28;20033;-65
2024/01/24 04:54:36;;;;;;;18.23;3.15;;;13.20;99.90;;;;;;5053155;28;20018;-65
2024/01/24 04:57:03;;;;;;;10.88;1.63;;;13.20;99.90;;;;;;5053058;28;20036;-64
2024/01/24 04:59:29;;;;;;;9.00;1.73;;;13.20;99.90;;;;;;5053109;28;20104;-64
2024/01/24 05:01:55;;;;;;;9.25;2.55;;;13.20;99.90;;;;;;5052997;28;20026;-63
2024/01/24 05:04:20;;;;;;;8.30;2.15;;;13.20;99.90;;;;;;5052623;28;20026;-64
2024/01/24 05:06:46;;;;;;;7.03;1.73;;;13.20;99.90;;;;;;5052999;28;20044;-64
2024/01/24 05:09:12;;;;;;;10.48;2.15;;;13.20;99.90;;;;;;5052663;28;20056;-64
2024/01/24 05:11:41;;;;;;;11.80;2.17;;;13.20;99.90;;;;;;5052819;28;20430;-63
2024/01/24 05:14:07;;;;;;;20.35;2.28;;;13.20;99.90;;;;;;5052884;28;20427;-63
2024/01/24 05:16:33;;;;;;;9.77;1.77;;;13.20;99.90;;;;;;5052779;28;20026;-65
2024/01/24 05:18:59;;;;;;;11.68;2.38;;;13.20;99.90;;;;;;5051766;28;20033;-68
2024/01/24 05:21:24;;;;;;;9.13;2.25;;;13.20;99.90;;;;;;5052663;28;20092;-65
2024/01/24 05:23:53;;;;;;;22.50;2.78;;;13.10;99.90;;;;;;5052678;28;20033;-65
2024/01/24 05:26:19;;;;;;;14.35;2.70;;;13.10;99.90;;;;;;5052636;28;20025;-68
2024/01/24 05:28:45;;;;;;;11.45;2.13;;;13.20;99.90;;;;;;5052718;28;20026;-65
2024/01/24 05:31:10;;;;;;;19.33;3.00;;;13.10;99.90;;;;;;5052737;28;20056;-68
2024/01/24 05:33:36;;;;;;;17.25;2.50;;;13.20;99.90;;;;;;5052279;28;20140;-67
2024/01/24 05:36:02;;;;;;;12.77;2.40;;;13.10;99.90;;;;;;5052332;28;20033;-64
2024/01/24 05:38:29;;;;;;;16.80;2.60;;;13.10;99.90;;;;;;5052429;28;20117;-67
2024/01/24 05:40:55;;;;;;;14.40;3.25;;;13.10;99.90;;;;;;5052466;28;20052;-66
2024/01/24 05:43:21;;;;;;;11.27;2.80;;;13.10;99.90;;;;;;5052474;28;20077;-65
2024/01/24 05:45:50;;;;;;;19.83;2.95;;;13.10;99.90;;;;;;5052373;28;20033;-65
2024/01/24 05:48:17;;;;;;;14.05;2.65;;;13.10;99.90;;;;;;5052351;28;20036;-65
2024/01/24 05:50:42;;;;;;;18.02;3.47;;;13.00;99.90;;;;;;5052185;28;20029;-65
2024/01/24 05:53:08;;;;;;;13.27;2.53;;;13.00;99.90;;;;;;5052262;28;20084;-65
2024/01/24 05:55:36;;;;;;;17.20;2.95;;;13.00;99.90;;;;;;5052255;28;20033;-65
2024/01/24 05:58:02;;;;;;;10.75;2.05;;;13.00;99.90;;;;;;5052243;28;20021;-66
2024/01/24 06:00:28;;;;;;;16.45;2.25;;;13.00;99.90;;;;;;5052227;28;20022;-64
2024/01/24 06:02:54;;;;;;;14.60;2.50;;;13.00;99.90;;;;;;5051864;28;20049;-64
2024/01/24 06:05:20;;;;;;;18.20;3.97;;;13.00;99.90;;;;;;5052110;28;20017;-66
2024/01/24 06:07:49;;;;;;;19.65;3.67;;;13.00;99.90;;;;;;5051807;28;20045;-67
2024/01/24 06:10:15;;;;;;;15.57;2.97;;;13.00;99.90;;;;;;5052146;28;20022;-65
2024/01/24 06:12:40;;;;;;;18.42;3.08;;;13.00;99.90;;;;;;5052013;28;20021;-64
2024/01/24 06:15:07;;;;;;;18.23;3.70;;;13.00;99.90;;;;;;5051234;28;20044;-66
2024/01/24 06:17:33;;;;;;;19.27;2.97;;;13.00;99.90;;;;;;5055667;28;20022;-64
2024/01/24 06:20:00;;;;;;;17.35;2.92;;;13.00;99.90;;;;;;5055523;28;20037;-66
2024/01/24 06:22:25;;;;;;;16.60;3.17;;;12.90;99.90;;;;;;5055877;28;20030;-66
2024/01/24 06:24:51;;;;;;;16.45;3.08;;;12.90;99.90;;;;;;5055834;28;20072;-65
2024/01/24 06:27:17;;;;;;;14.35;2.65;;;12.90;99.90;;;;;;5055662;28;20032;-64
2024/01/24 06:29:43;;;;;;;19.13;3.40;;;12.90;99.90;;;;;;5055363;28;20018;-66
2024/01/24 06:32:08;;;;;;;21.13;3.38;;;12.90;99.90;;;;;;5054366;28;20029;-68
2024/01/24 06:34:34;;;;;;;16.75;3.80;;;12.90;99.90;;;;;;5055371;28;20044;-64
2024/01/24 06:37:00;;;;;;;18.83;3.05;;;12.90;99.90;;;;;;5055503;28;20030;-65
2024/01/24 06:39:25;;;;;;;19.33;3.10;;;12.90;99.90;;;;;;5055797;28;20025;-66
2024/01/24 06:41:51;;;;;;;17.80;3.22;;;12.90;99.90;;;;;;5055799;28;20033;-68
2024/01/24 06:44:17;;;;;;;20.90;3.67;;;12.90;99.90;;;;;;5055851;28;20056;-66
2024/01/24 06:46:44;;;;;;;14.13;3.05;;;12.80;99.90;;;;;;5055747;28;20025;-66
2024/01/24 06:49:12;;;;;;;21.80;3.30;;;12.80;99.90;;;;;;5072039;28;20029;-65
2024/01/24 06:51:38;;;;;;;19.80;4.05;;;12.70;99.90;;;;;;5074867;28;20025;-66
2024/01/24 06:54:05;;;;;;;17.30;2.97;;;12.70;99.90;;;;;;5074501;28;20032;-65
2024/01/24 06:56:31;;;;;;;16.08;2.85;;;12.60;99.90;;;;;;5074310;28;20025;-65
2024/01/24 06:58:56;;;;;;;17.17;2.83;;;12.60;99.90;;;;;;5074154;28;20388;-65
2024/01/24 07:01:22;;;;;;;19.83;3.50;;;12.60;99.90;;;;;;5075276;28;20079;-63
2024/01/24 07:03:48;;;;;;;22.38;4.00;;;12.50;99.90;;;;;;5074031;28;20048;-68
2024/01/24 07:06:14;;;;;;;23.13;3.70;;;12.50;99.90;;;;;;5075230;28;20029;-65
2024/01/24 07:08:40;;;;;;;15.30;2.83;;;12.40;99.90;;;;;;5075134;28;20041;-67
2024/01/24 07:11:06;;;;;;;16.30;2.78;;;12.40;99.90;;;;;;5074205;28;20116;-66
2024/01/24 07:13:32;;;;;;;24.65;4.68;;;12.40;99.90;;;;;;5074083;28;20036;-64
2024/01/24 07:16:00;;;;;;;14.60;3.03;;;12.30;99.90;;;;;;5074981;28;20052;-67
2024/01/24 07:18:26;;;;;;;25.45;4.18;;;12.30;99.90;;;;;;5075141;28;20127;-66
2024/01/24 07:20:52;;;;;;;22.17;3.67;;;12.20;99.90;;;;;;5074926;28;20013;-64
2024/01/24 07:23:18;;;;;;;21.08;3.33;;;12.30;99.90;;;;;;5074947;28;20036;-66
2024/01/24 07:25:43;;;;;;;16.05;2.97;;;12.20;99.90;;;;;;5074659;28;20036;-64
2024/01/24 07:28:09;;;;;;;26.92;3.30;;;12.10;99.90;;;;;;5074531;28;20080;-65
2024/01/24 07:30:35;;;;;;;23.65;3.85;;;12.00;99.90;;;;;;5074869;28;20022;-69
2024/01/24 07:33:03;;;;;;;19.88;3.70;;;12.00;99.90;;;;;;5074628;28;20029;-70
2024/01/24 07:35:28;;;;;;;32.75;5.32;;;12.00;99.90;;;;;;5074658;28;20029;-65
2024/01/24 07:37:54;;;;;;;22.83;4.47;;;12.00;99.90;;;;;;5074694;28;20036;-64
2024/01/24 07:40:19;;;;;;;21.25;4.47;;;12.00;99.90;;;;;;5074558;28;20021;-65
2024/01/24 07:42:45;;;;;;;26.38;4.38;;;12.00;99.90;;;;;;5074599;28;20116;-65
2024/01/24 07:45:11;;;;;;;20.63;4.13;;;11.90;99.90;;;;;;5074435;28;20056;-67
2024/01/24 07:47:37;;;;;;;22.77;4.10;;;11.90;99.90;;;;;;5074552;28;20029;-66
2024/01/24 07:50:03;;;;;;;22.73;4.10;;;11.90;99.90;;;;;;5074452;28;20064;-66
2024/01/24 07:52:29;;;;;;;22.60;3.45;;;11.90;99.90;;;;;;5074446;28;20092;-66
2024/01/24 07:54:54;;;;;;;19.25;3.95;;;11.80;99.90;;;;;;5074312;28;20051;-67
2024/01/24 07:57:52;;;;;;;20.92;3.85;;;11.80;99.90;;;;;;5074382;28;20040;-67
2024/01/24 08:00:18;;;;;;;26.35;3.90;;;11.80;99.90;;;;;;5074032;28;20041;-67
2024/01/24 08:02:44;;;;;;;18.00;4.07;;;11.80;99.90;;;;;;5073996;28;20047;-67
2024/01/24 08:05:14;;;;;;;21.88;3.80;;;11.80;99.90;;;;;;5074109;28;20025;-66
2024/01/24 08:07:43;;;;;;;23.80;3.95;;;11.80;99.90;;;;;;5073952;28;20109;-65
2024/01/24 08:10:11;;;;;;;22.15;5.70;;;11.80;99.90;;;;;;5074051;28;20017;-65
2024/01/24 08:12:40;;;;;;;19.38;4.20;;;11.80;99.90;;;;;;5074064;28;20171;-66
2024/01/24 08:15:16;;;;;;;23.30;4.45;;;11.70;99.90;;;;;;5073954;28;20080;-69
2024/01/24 08:17:42;;;;;;;16.63;2.72;;;11.70;99.90;;;;;;5073933;28;20052;-67
2024/01/24 08:20:08;;;;;;;18.88;3.67;;;11.70;99.90;;;;;;5073948;28;20244;-64
2024/01/24 08:22:34;;;;;;;24.58;4.68;;;11.70;99.90;;;;;;5073757;28;20048;-65
2024/01/24 08:25:01;;;;;;;18.15;3.88;;;11.60;99.90;;;;;;5073921;28;20017;-66
2024/01/24 08:27:27;;;;;;;26.10;4.70;;;11.60;99.90;;;;;;5073897;28;20017;-65
2024/01/24 08:29:53;;;;;;;23.85;4.82;;;11.70;99.90;;;;;;5073865;28;20051;-66
2024/01/24 08:32:18;;;;;;;23.77;5.30;;;11.60;99.90;;;;;;5072795;28;20029;-65
2024/01/24 08:34:44;;;;;;;19.52;3.38;;;11.70;99.90;;;;;;5073467;28;20025;-66
2024/01/24 08:37:10;;;;;;;19.25;3.30;;;11.60;99.90;;;;;;5073387;28;20032;-66
2024/01/24 08:39:36;;;;;;;19.67;4.30;;;11.60;99.90;;;;;;5072911;28;20032;-64
2024/01/24 08:42:04;;;;;;;26.45;4.82;;;11.60;99.90;;;;;;5073428;28;20036;-66
2024/01/24 08:44:30;;;;;;;23.85;4.15;;;11.60;99.90;;;;;;5073496;28;20047;-63
2024/01/24 08:46:56;;;;;;;17.58;3.10;;;11.60;99.90;;;;;;5073415;28;20459;-66
2024/01/24 08:49:21;;;;;;;24.60;4.93;;;11.60;99.90;;;;;;5073346;28;20025;-65
2024/01/24 08:51:47;;;;;;;25.77;6.18;;;11.60;99.90;;;;;;5073222;28;20033;-65
2024/01/24 08:54:13;;;;;;;20.17;3.60;;;11.60;99.90;;;;;;5073178;28;20076;-66
2024/01/24 08:56:39;;;;;;;16.20;3.78;;;11.60;99.90;;;;;;5073171;28;20043;-64
2024/01/24 08:59:04;;;;;;;20.55;3.90;;;11.70;99.90;;;;;;5073105;28;20051;-64
2024/01/24 09:01:30;;;;;;;28.90;4.20;;;11.60;99.90;;;;;;5073073;28;20032;-67
2024/01/24 09:03:56;;;;;;;18.02;3.45;;;11.70;99.90;;;;;;5071753;28;20048;-65
2024/01/24 09:06:22;;;;;;;22.85;4.28;;;11.60;99.90;;;;;;5073043;28;20041;-66
2024/01/24 09:08:52;;;;;;;29.35;4.47;;;11.60;99.90;;;;;;5072783;28;20076;-65
2024/01/24 09:11:21;;;;;;;28.27;4.40;;;11.60;99.90;;;;;;5072970;28;20104;-66
2024/01/24 09:13:48;;;;;;;24.58;4.60;;;11.60;99.90;;;;;;5072797;28;20029;-65
2024/01/24 09:16:14;;;;;;;28.65;4.97;;;11.60;99.90;;;;;;5071623;28;20032;-64
2024/01/24 09:18:40;;;;;;;21.05;4.25;;;11.60;99.90;;;;;;5072680;28;20032;-65
2024/01/24 09:21:06;;;;;;;18.60;3.58;;;11.60;99.90;;;;;;5072681;28;20467;-65
2024/01/24 09:23:32;;;;;;;25.98;4.07;;;11.70;99.90;;;;;;5072721;28;20021;-66
2024/01/24 09:25:57;;;;;;;25.50;4.18;;;11.70;99.90;;;;;;5072717;28;20032;-64
2024/01/24 09:28:23;;;;;;;22.25;4.43;;;11.70;99.90;;;;;;5072783;28;20036;-66
2024/01/24 09:30:49;;;;;;;21.73;4.03;;;11.70;99.90;;;;;;5072690;28;20036;-66
2024/01/24 09:33:15;;;;;;;24.55;3.45;;;11.70;99.90;;;;;;5072428;28;20027;-66
2024/01/24 09:35:41;;;;;;;21.27;3.40;;;11.70;99.90;;;;;;5072318;28;20029;-66
2024/01/24 09:38:06;;;;;;;23.80;4.78;;;11.70;99.90;;;;;;5072446;28;20049;-67
2024/01/24 09:40:32;;;;;;;25.23;4.70;;;11.70;99.90;;;;;;5072453;28;20029;-67
2024/01/24 09:43:01;;;;;;;29.13;4.85;;;11.80;99.90;;;;;;5072392;28;20021;-69
2024/01/24 09:45:28;;;;;;;22.38;4.32;;;11.80;99.90;;;;;;5072380;28;20116;-67
2024/01/24 09:47:56;;;;;;;14.50;3.17;;;11.80;99.90;;;;;;5072355;28;20025;-67
2024/01/24 09:50:23;;;;;;;31.95;4.43;;;11.80;99.90;;;;;;5070300;28;20033;-67
2024/01/24 09:52:50;;;;;;;21.33;4.05;;;11.80;99.90;;;;;;5071350;28;20029;-67
2024/01/24 09:55:18;;;;;;;26.00;4.15;;;11.80;99.90;;;;;;5072270;28;20033;-68
2024/01/24 09:57:45;;;;;;;23.63;3.58;;;11.80;99.90;;;;;;5072465;28;20021;-67
2024/01/24 10:00:14;;;;;;;22.30;3.30;;;11.80;99.90;;;;;;5072400;28;20029;-67
2024/01/24 10:02:43;;;;;;;21.40;3.78;;;11.80;99.90;;;;;;5072166;28;20033;-67
2024/01/24 10:05:13;;;;;;;20.25;4.10;;;11.90;99.90;;;;;;5072210;28;20027;-66
2024/01/24 10:08:06;;;;;;;15.30;4.30;;;11.90;99.90;;;;;;5071889;28;20101;-66
2024/01/24 10:10:36;;;;;;;19.67;3.55;;;11.90;99.90;;;;;;5071628;28;20092;-65
2024/01/24 10:13:28;;;;;;;20.17;2.97;;;11.90;99.90;;;;;;5071374;28;20029;-65
2024/01/24 10:15:54;;;;;;;23.10;5.20;;;11.90;99.90;;;;;;5072187;28;20056;-67
2024/01/24 10:18:19;;;;;;;20.52;2.95;;;12.00;99.90;;;;;;5072207;28;20049;-64
2024/01/24 10:20:49;;;;;;;30.38;5.47;;;11.90;99.90;;;;;;5071071;28;20052;-65
2024/01/24 10:23:16;;;;;;;17.02;3.15;;;12.00;99.90;;;;;;5071060;28;20060;-65
2024/01/24 10:25:42;;;;;;;19.50;3.78;;;12.00;99.90;;;;;;5072056;28;20056;-66
2024/01/24 10:28:14;;;;;;;23.92;4.63;;;12.00;99.90;;;;;;5071999;28;20088;-66
2024/01/24 10:30:46;;;;;;;26.58;3.58;;;11.90;99.90;;;;;;5070848;28;20044;-66
2024/01/24 10:33:12;;;;;;;26.55;3.80;;;12.00;99.90;;;;;;5071819;28;20021;-66
2024/01/24 10:35:42;;;;;;;24.27;4.13;;;12.00;99.90;;;;;;5071841;28;20017;-66
2024/01/24 10:38:12;;;;;;;17.40;4.07;;;12.00;99.90;;;;;;5071850;28;20159;-68
2024/01/24 10:40:41;;;;;;;21.23;3.42;;;12.00;99.90;;;;;;5070896;28;20021;-66
2024/01/24 10:43:14;;;;;;;19.80;3.65;;;12.10;99.90;;;;;;5071929;28;20025;-66
2024/01/24 10:45:48;;;;;;;21.95;3.40;;;12.00;99.90;;;;;;5071791;28;20047;-66
2024/01/24 10:48:16;;;;;;;23.35;3.78;;;12.10;99.90;;;;;;5071823;28;20100;-65
2024/01/24 10:50:43;;;;;;;18.85;2.85;;;12.10;99.90;;;;;;5071714;28;20026;-66
2024/01/24 10:53:09;;;;;;;16.50;3.95;;;12.10;99.90;;;;;;5071714;28;20029;-65
2024/01/24 10:55:37;;;;;;;16.17;3.00;;;12.10;99.90;;;;;;5071560;28;20044;-66
2024/01/24 10:58:03;;;;;;;17.38;3.33;;;12.10;99.90;;;;;;5071665;28;20025;-67
2024/01/24 11:00:29;;;;;;;16.77;3.38;;;12.10;99.90;;;;;;5071505;28;20029;-66
2024/01/24 11:02:56;;;;;;;14.40;3.10;;;12.10;99.90;;;;;;5074425;28;20017;-65
2024/01/24 11:05:24;;;;;;;14.43;3.00;;;12.10;99.90;;;;;;5075343;28;20025;-67
2024/01/24 11:08:03;;;;;;;16.55;3.42;;;12.10;99.90;;;;;;5075125;28;20045;-68
2024/01/24 11:10:42;;;;;;;16.73;3.88;;;12.10;99.90;;;;;;5075333;28;20025;-65
2024/01/24 11:13:10;;;;;;;28.63;3.88;;;12.10;99.90;;;;;;5075177;28;20033;-65
2024/01/24 11:15:36;;;;;;;19.67;3.42;;;12.10;99.90;;;;;;5075123;28;20139;-66
2024/01/24 11:18:25;;;;;;;25.75;4.68;;;12.10;99.90;;;;;;5075138;28;20031;-67
2024/01/24 11:21:01;;;;;;;22.67;3.95;;;12.10;99.90;;;;;;5075011;28;20021;-66
2024/01/24 11:23:45;;;;;;;23.23;3.40;;;12.10;99.90;;;;;;5075059;28;20024;-66
2024/01/24 11:26:32;;;;;;;21.05;3.17;;;12.10;99.90;;;;;;5074955;28;20028;-67
2024/01/24 11:29:05;;;;;;;22.50;3.83;;;12.10;99.90;;;;;;5074838;28;20049;-66
2024/01/24 11:31:42;;;;;;;19.50;4.03;;;12.10;99.90;;;;;;5074861;28;20052;-66
2024/01/24 11:34:11;;;;;;;20.75;3.92;;;12.10;99.90;;;;;;5074589;28;20093;-65
2024/01/24 11:36:53;;;;;;;18.52;4.13;;;12.10;99.90;;;;;;5074719;28;20113;-65
2024/01/24 11:39:38;;;;;;;19.25;3.72;;;12.10;99.90;;;;;;5074676;28;20043;-69
2024/01/24 11:42:33;;;;;;;17.98;3.25;;;12.10;99.90;;;;;;5074616;28;20025;-66
2024/01/24 11:45:16;;;;;;;19.75;3.22;;;12.00;99.90;;;;;;5074601;28;20021;-67
2024/01/24 11:47:42;;;;;;;18.48;4.13;;;12.00;99.90;;;;;;5074533;28;20028;-66
2024/01/24 11:50:09;;;;;;;17.25;3.95;;;12.10;99.90;;;;;;5074452;28;20036;-69
2024/01/24 11:52:35;;;;;;;18.80;3.83;;;12.10;99.90;;;;;;5074431;28;20017;-66
2024/01/24 11:55:00;;;;;;;18.10;4.07;;;12.00;99.90;;;;;;5074294;28;20022;-68
2024/01/24 11:57:27;;;;;;;19.98;3.33;;;12.00;99.90;;;;;;5074362;28;20108;-66
2024/01/24 11:59:53;;;;;;;25.08;3.78;;;12.00;99.90;;;;;;5074375;28;20084;-65
2024/01/24 12:02:19;;;;;;;17.90;3.47;;;12.00;99.90;;;;;;5074320;28;20025;-66
2024/01/24 12:04:48;;;;;;;20.30;3.10;;;12.00;99.90;;;;;;5073967;28;20028;-66
2024/01/24 12:07:14;;;;;;;25.23;3.78;;;12.00;99.90;;;;;;5074122;28;20449;-66
2024/01/24 12:09:40;;;;;;;15.70;3.58;;;12.10;99.90;;;;;;5073944;28;20052;-67
2024/01/24 12:12:07;;;;;;;16.92;3.08;;;12.10;99.90;;;;;;5074166;28;20036;-66
2024/01/24 12:14:34;;;;;;;20.50;4.35;;;12.20;99.90;;;;;;5073030;28;20029;-67
2024/01/24 12:17:00;;;;;;;14.13;2.35;;;12.20;99.90;;;;;;5073924;28;20037;-66
2024/01/24 12:19:26;;;;;;;19.40;3.47;;;12.20;99.90;;;;;;5073729;28;20013;-66
2024/01/24 12:21:52;;;;;;;17.85;2.97;;;12.30;99.90;;;;;;5073824;28;20064;-65
2024/01/24 12:24:17;;;;;;;22.55;4.60;;;12.20;99.90;;;;;;5073870;28;20029;-65
2024/01/24 12:26:43;;;;;;;19.52;3.28;;;12.20;99.90;;;;;;5073797;28;20033;-66
2024/01/24 12:29:09;;;;;;;15.02;2.65;;;12.20;99.90;;;;;;5073909;28;20037;-69
2024/01/24 12:31:38;;;;;;;15.52;2.47;;;12.20;99.90;;;;;;5073749;28;20095;-67
2024/01/24 12:34:07;;;;;;;16.15;2.42;;;12.30;99.90;;;;;;5073553;28;20108;-65
2024/01/24 12:36:32;;;;;;;16.33;3.88;;;12.30;99.90;;;;;;5072378;28;20033;-66
2024/01/24 12:38:59;;;;;;;16.30;2.53;;;12.30;99.90;;;;;;5073589;28;20031;-65